Time;durP1;ratioP1;P1;durP2;ratioP2;P2;SDS_P1;SDS_P2;PMS_P1;PMS_P2;Temp;Humidity;BMP_temperature;BMP_pressure;BME280_temperature;BME280_humidity;BME280_pressure;Samples;Min_cycle;Max_cycle;Signal;HPM_P1;HPM_P2
2021/12/13 00:01:35;;;;;;;10.18;6.78;;;;;;;-147.58;100.00;61311.59;5108497;28;20032;-65
2021/12/13 00:04:28;;;;;;;15.25;7.63;;;;;;;-147.58;100.00;61311.59;5108764;28;20081;-66
2021/12/13 00:07:06;;;;;;;12.02;7.38;;;;;;;-147.58;100.00;61311.59;5107892;28;20032;-66
2021/12/13 00:09:38;;;;;;;10.55;7.00;;;;;;;-147.58;100.00;61311.59;5108278;28;20039;-64
2021/12/13 00:12:05;;;;;;;9.80;6.40;;;;;;;-147.58;100.00;61311.59;5108245;28;20213;-66
2021/12/13 00:14:35;;;;;;;10.82;6.72;;;;;;;-147.58;100.00;61311.59;5108274;28;20032;-66
2021/12/13 00:17:11;;;;;;;9.43;6.20;;;;;;;-147.58;100.00;61311.59;5107855;28;20048;-66
2021/12/13 00:19:41;;;;;;;10.50;6.53;;;;;;;-147.58;100.00;61311.59;5108078;28;20031;-67
2021/12/13 00:22:21;;;;;;;9.82;6.20;;;;;;;-147.58;100.00;61311.59;5108016;28;20032;-65
2021/12/13 00:24:48;;;;;;;9.88;6.38;;;;;;;-147.58;100.00;61311.59;5106421;28;20152;-63
2021/12/13 00:27:26;;;;;;;17.60;7.93;;;;;;;-147.58;100.00;61311.59;5108084;28;20032;-62
2021/12/13 00:29:59;;;;;;;13.13;7.70;;;;;;;-147.58;100.00;61311.59;5107147;28;20172;-67
2021/12/13 00:32:46;;;;;;;10.32;6.85;;;;;;;-147.58;100.00;61311.59;5100572;28;20048;-59
2021/12/13 00:35:19;;;;;;;11.80;6.55;;;;;;;-147.58;100.00;61311.59;5107917;28;20184;-66
2021/12/13 00:37:50;;;;;;;18.08;6.65;;;;;;;-147.58;100.00;61311.59;5107960;28;20145;-67
2021/12/13 00:40:35;;;;;;;;;;;;;;;-147.58;100.00;61311.59;5108362;28;20228;-67
2021/12/13 00:43:06;;;;;;;11.95;6.90;;;;;;;-147.58;100.00;61311.59;5107810;28;19904;-66
2021/12/13 00:45:36;;;;;;;11.95;6.93;;;;;;;-147.58;100.00;61311.59;5107961;28;20044;-67
2021/12/13 00:48:05;;;;;;;10.83;7.30;;;;;;;-147.58;100.00;61311.59;5107794;28;20153;-66
2021/12/13 00:51:03;;;;;;;10.38;6.30;;;;;;;-147.58;100.00;61311.59;5107156;28;20119;-66
2021/12/13 00:53:35;;;;;;;11.75;6.88;;;;;;;-147.58;100.00;61311.59;5090752;28;20122;-66
2021/12/13 00:56:21;;;;;;;11.48;6.80;;;;;;;-147.58;100.00;61311.59;5096431;28;20156;-66
2021/12/13 00:58:48;;;;;;;11.82;6.20;;;;;;;-147.58;100.00;61311.59;5107476;28;20032;-68
2021/12/13 01:01:15;;;;;;;11.70;7.13;;;;;;;-147.58;100.00;61311.59;5107397;28;20148;-67
2021/12/13 01:03:49;;;;;;;10.68;6.40;;;;;;;-147.58;100.00;61311.59;5107555;28;20578;-67
2021/12/13 01:06:53;;;;;;;13.43;6.18;;;;;;;-147.58;100.00;61311.59;5106287;28;20103;-66
2021/12/13 01:09:53;;;;;;;8.98;6.13;;;;;;;-147.58;100.00;61311.59;5107342;28;20229;-67
2021/12/13 01:12:21;;;;;;;10.32;6.40;;;;;;;-147.58;100.00;61311.59;5107281;28;20043;-67
2021/12/13 01:14:59;;;;;;;10.13;6.68;;;;;;;-147.58;100.00;61311.59;5107277;28;20028;-66
2021/12/13 01:20:54;;;;;;;10.23;6.35;;;;;;;-147.58;100.00;61311.59;5107318;28;20093;-67
2021/12/13 01:23:38;;;;;;;8.57;4.95;;;;;;;-147.58;100.00;61311.59;5107087;28;20031;-67
2021/12/13 01:26:26;;;;;;;10.07;5.82;;;;;;;-147.58;100.00;61311.59;5107082;28;20095;-67
2021/12/13 01:28:59;;;;;;;10.63;5.97;;;;;;;-147.58;100.00;61311.59;5105632;28;20059;-66
2021/12/13 01:31:41;;;;;;;13.55;6.28;;;;;;;-147.58;100.00;61311.59;5106867;28;20048;-66
2021/12/13 01:34:09;;;;;;;8.32;5.38;;;;;;;-147.58;100.00;61311.59;5105232;28;20032;-66
2021/12/13 01:36:44;;;;;;;11.63;5.90;;;;;;;-147.58;100.00;61311.59;5107320;28;20020;-66
2021/12/13 01:39:15;;;;;;;8.50;5.53;;;;;;;-147.58;100.00;61311.59;5107208;28;20137;-66
2021/12/13 01:41:49;;;;;;;7.97;5.65;;;;;;;-147.58;100.00;61311.59;5106958;28;20046;-67
2021/12/13 01:44:24;;;;;;;9.60;5.38;;;;;;;-147.58;100.00;61311.59;5107238;28;20125;-67
2021/12/13 01:46:57;;;;;;;9.35;5.43;;;;;;;-147.58;100.00;61311.59;5106896;28;20023;-67
2021/12/13 01:49:36;;;;;;;9.07;5.75;;;;;;;-147.58;100.00;61311.59;5105516;28;20062;-66
2021/12/13 01:52:11;;;;;;;9.57;5.78;;;;;;;-147.58;100.00;61311.59;5106995;28;20101;-67
2021/12/13 01:54:39;;;;;;;8.13;5.35;;;;;;;-147.58;100.00;61311.59;5106767;28;20032;-67
2021/12/13 02:00:17;;;;;;;9.88;6.28;;;;;;;-147.58;100.00;61311.59;5107096;28;20042;-66
2021/12/13 02:02:50;;;;;;;7.75;4.38;;;;;;;-147.58;100.00;61311.59;5106572;28;20243;-66
2021/12/13 02:05:19;;;;;;;8.25;5.45;;;;;;;-147.58;100.00;61311.59;5106861;28;20028;-68
2021/12/13 02:08:10;;;;;;;6.90;4.95;;;;;;;-147.58;100.00;61311.59;5106564;28;20243;-67
2021/12/13 02:10:56;;;;;;;8.68;4.93;;;;;;;-147.58;100.00;61311.59;5100282;28;20081;-67
2021/12/13 02:13:34;;;;;;;6.22;4.70;;;;;;;-147.58;100.00;61311.59;5106446;28;20297;-68
2021/12/13 02:18:51;;;;;;;7.80;4.63;;;;;;;-147.58;100.00;61311.59;5109690;28;20087;-67
2021/12/13 02:21:33;;;;;;;8.90;5.45;;;;;;;-147.58;100.00;61311.59;5110438;28;20028;-67
2021/12/13 02:24:11;;;;;;;6.40;4.53;;;;;;;-147.58;100.00;61311.59;5110435;28;20055;-67
2021/12/13 02:26:41;;;;;;;6.78;4.60;;;;;;;-147.58;100.00;61311.59;5106586;28;20079;-66
2021/12/13 02:29:22;;;;;;;10.23;5.53;;;;;;;-147.58;100.00;61311.59;5110440;28;20043;-66
2021/12/13 02:31:48;;;;;;;6.82;3.95;;;;;;;-147.58;100.00;61311.59;5110398;28;20087;-67
2021/12/13 02:34:17;;;;;;;5.93;3.85;;;;;;;-147.58;100.00;61311.59;5101365;28;20039;-67
2021/12/13 02:36:47;;;;;;;8.15;5.38;;;;;;;-147.58;100.00;61311.59;5089941;28;20013;-67
2021/12/13 02:39:20;;;;;;;7.32;4.53;;;;;;;-147.58;100.00;61311.59;5089949;28;20130;-67
2021/12/13 02:41:46;;;;;;;6.55;4.45;;;;;;;-147.58;100.00;61311.59;5100649;28;20039;-68
2021/12/13 02:44:38;;;;;;;7.82;5.15;;;;;;;-147.58;100.00;61311.59;5110107;28;20059;-67
2021/12/13 02:47:19;;;;;;;6.10;4.28;;;;;;;-147.58;100.00;61311.59;5110271;28;20016;-67
2021/12/13 02:49:45;;;;;;;6.32;4.25;;;;;;;-147.58;100.00;61311.59;5110349;28;20089;-67
2021/12/13 02:52:17;;;;;;;7.72;5.22;;;;;;;-147.58;100.00;61311.59;5109844;28;20125;-66
2021/12/13 02:54:48;;;;;;;9.18;5.13;;;;;;;-147.58;100.00;61311.59;5109859;28;20027;-67
2021/12/13 02:57:39;;;;;;;7.27;4.70;;;;;;;-147.58;100.00;61311.59;5108104;28;20020;-67
2021/12/13 03:00:08;;;;;;;;;;;;;;;-147.58;100.00;61311.59;5109990;28;20040;-67
2021/12/13 03:02:40;;;;;;;5.70;4.38;;;;;;;-147.58;100.00;61311.59;5109717;28;19904;-67
2021/12/13 03:05:11;;;;;;;7.82;4.57;;;;;;;-147.58;100.00;61311.59;5109682;28;20137;-67
2021/12/13 03:07:44;;;;;;;8.55;4.68;;;;;;;-147.58;100.00;61311.59;5109566;28;20020;-67
2021/12/13 03:10:16;;;;;;;8.57;4.70;;;;;;;-147.58;100.00;61311.59;5108350;28;20020;-67
2021/12/13 03:12:42;;;;;;;7.35;4.40;;;;;;;-147.58;100.00;61311.59;5109309;28;20047;-68
2021/12/13 03:15:13;;;;;;;8.52;5.20;;;;;;;-147.58;100.00;61311.59;5109436;28;20016;-68
2021/12/13 03:17:53;;;;;;;6.72;4.40;;;;;;;-147.58;100.00;61311.59;5109401;28;20092;-67
2021/12/13 03:20:19;;;;;;;8.23;5.15;;;;;;;-147.58;100.00;61311.59;5108417;28;20020;-68
2021/12/13 03:23:09;;;;;;;6.82;4.47;;;;;;;-147.58;100.00;61311.59;5109363;28;20240;-68
2021/12/13 03:25:40;;;;;;;6.07;3.97;;;;;;;-147.58;100.00;61311.59;5109284;28;20051;-68
2021/12/13 03:28:44;;;;;;;8.25;5.30;;;;;;;-147.58;100.00;61311.59;5108218;28;20044;-67
2021/12/13 03:31:23;;;;;;;6.70;4.80;;;;;;;-147.58;100.00;61311.59;5108806;28;20064;-68
2021/12/13 03:34:10;;;;;;;8.15;4.60;;;;;;;-147.58;100.00;61311.59;5103689;28;20039;-68
2021/12/13 03:36:57;;;;;;;6.75;4.85;;;;;;;-147.58;100.00;61311.59;5088630;28;20222;-67
2021/12/13 03:39:28;;;;;;;6.88;4.40;;;;;;;-147.58;100.00;61311.59;5088882;28;20035;-68
2021/12/13 03:41:56;;;;;;;8.23;5.18;;;;;;;-147.58;100.00;61311.59;5088734;28;20038;-68
2021/12/13 03:44:31;;;;;;;6.88;4.28;;;;;;;-147.58;100.00;61311.59;5088706;28;20036;-68
2021/12/13 03:47:08;;;;;;;6.13;4.25;;;;;;;-147.58;100.00;61311.59;5101929;28;20095;-68
2021/12/13 03:49:51;;;;;;;7.53;4.38;;;;;;;-147.58;100.00;61311.59;5109058;28;20051;-68
2021/12/13 03:52:21;;;;;;;7.50;4.72;;;;;;;-147.58;100.00;61311.59;5108760;28;20031;-68
2021/12/13 03:54:49;;;;;;;6.82;4.78;;;;;;;-147.58;100.00;61311.59;5108693;28;20047;-68
2021/12/13 03:57:17;;;;;;;7.57;4.82;;;;;;;-147.58;100.00;61311.59;5107535;28;20043;-68
2021/12/13 03:59:46;;;;;;;8.82;5.10;;;;;;;-147.58;100.00;61311.59;5108602;28;20137;-68
2021/12/13 04:02:17;;;;;;;7.30;5.03;;;;;;;-147.58;100.00;61311.59;5108501;28;20225;-68
2021/12/13 04:04:47;;;;;;;7.55;4.70;;;;;;;-147.58;100.00;61311.59;5108582;28;20050;-68
2021/12/13 04:07:14;;;;;;;8.25;5.32;;;;;;;-147.58;100.00;61311.59;5106542;28;20145;-68
2021/12/13 04:09:42;;;;;;;6.60;4.45;;;;;;;-147.58;100.00;61311.59;5108629;28;20047;-68
2021/12/13 04:12:10;;;;;;;6.85;5.18;;;;;;;-147.58;100.00;61311.59;5108439;28;20023;-67
2021/12/13 04:14:46;;;;;;;7.60;4.55;;;;;;;-147.58;100.00;61311.59;5108212;28;20023;-66
2021/12/13 04:17:36;;;;;;;8.43;4.43;;;;;;;-147.58;100.00;61311.59;5108370;28;20035;-66
2021/12/13 04:20:08;;;;;;;8.82;6.00;;;;;;;-147.58;100.00;61311.59;5108736;28;20055;-66
2021/12/13 04:22:37;;;;;;;9.55;5.45;;;;;;;-147.58;100.00;61311.59;5107590;28;20040;-66
2021/12/13 04:25:17;;;;;;;9.00;5.30;;;;;;;-147.58;100.00;61311.59;5108479;28;20028;-66
2021/12/13 04:27:55;;;;;;;6.90;5.03;;;;;;;-147.58;100.00;61311.59;5108073;28;20139;-67
2021/12/13 04:30:40;;;;;;;8.32;5.43;;;;;;;-147.58;100.00;61311.59;5106555;28;20024;-68
2021/12/13 04:33:30;;;;;;;6.63;4.30;;;;;;;-147.58;100.00;61311.59;5087579;28;20072;-68
2021/12/13 04:36:02;;;;;;;7.50;5.82;;;;;;;-147.58;100.00;61311.59;5087294;28;20041;-67
2021/12/13 04:38:34;;;;;;;;;;;;;;;-147.58;100.00;61311.59;5087935;28;20054;-67
2021/12/13 04:41:00;;;;;;;7.63;5.07;;;;;;;-147.58;100.00;61311.59;5095992;28;19959;-68
2021/12/13 04:43:25;;;;;;;7.75;5.35;;;;;;;-147.58;100.00;61311.59;5107615;28;20020;-67
2021/12/13 04:45:57;;;;;;;7.65;4.97;;;;;;;-147.58;100.00;61311.59;5107875;28;20200;-67
2021/12/13 04:48:28;;;;;;;7.65;4.70;;;;;;;-147.58;100.00;61311.59;5107678;28;20118;-67
2021/12/13 04:51:02;;;;;;;10.10;5.38;;;;;;;-147.58;100.00;61311.59;5107704;28;20042;-67
2021/12/13 04:53:31;;;;;;;8.02;5.85;;;;;;;-147.58;100.00;61311.59;5107441;28;20296;-67
2021/12/13 04:56:00;;;;;;;8.98;6.25;;;;;;;-147.58;100.00;61311.59;5103653;28;20034;-68
2021/12/13 04:58:27;;;;;;;8.82;4.63;;;;;;;-147.58;100.00;61311.59;5087146;28;20032;-66
2021/12/13 05:00:57;;;;;;;8.02;5.10;;;;;;;-147.58;100.00;61311.59;5087024;28;20087;-67
2021/12/13 05:03:28;;;;;;;9.48;6.03;;;;;;;-147.58;100.00;61311.59;5087043;28;20033;-66
2021/12/13 05:05:57;;;;;;;8.15;5.00;;;;;;;-147.58;100.00;61311.59;5087097;28;20248;-67
2021/12/13 05:08:23;;;;;;;7.97;5.20;;;;;;;-147.58;100.00;61311.59;5086918;28;20032;-67
2021/12/13 05:10:51;;;;;;;8.02;5.80;;;;;;;-147.58;100.00;61311.59;5099138;28;20024;-66
2021/12/13 05:13:16;;;;;;;6.05;4.53;;;;;;;-147.58;100.00;61311.59;5107024;28;20304;-67
2021/12/13 05:15:53;;;;;;;11.35;6.07;;;;;;;-147.58;100.00;61311.59;5107349;28;20047;-67
2021/12/13 05:18:23;;;;;;;8.00;5.63;;;;;;;-147.58;100.00;61311.59;5107242;28;20020;-67
2021/12/13 05:20:58;;;;;;;10.93;5.78;;;;;;;-147.58;100.00;61311.59;5107267;28;20028;-67
2021/12/13 05:23:26;;;;;;;8.10;5.10;;;;;;;-147.58;100.00;61311.59;5106969;28;20039;-66
2021/12/13 05:26:06;;;;;;;7.65;5.00;;;;;;;-147.58;100.00;61311.59;5106622;28;20162;-67
2021/12/13 05:28:46;;;;;;;8.85;5.30;;;;;;;-147.58;100.00;61311.59;5106848;28;20044;-67
2021/12/13 05:31:19;;;;;;;7.28;5.32;;;;;;;-147.58;100.00;61311.59;5106747;28;20067;-67
2021/12/13 05:33:51;;;;;;;8.10;5.03;;;;;;;-147.58;100.00;61311.59;5101828;28;20020;-68
2021/12/13 05:36:23;;;;;;;10.10;5.82;;;;;;;-147.58;100.00;61311.59;5086640;28;20100;-68
2021/12/13 05:38:59;;;;;;;9.52;5.40;;;;;;;-147.58;100.00;61311.59;5087121;28;20249;-68
2021/12/13 05:41:29;;;;;;;9.55;5.13;;;;;;;-147.58;100.00;61311.59;5105705;28;20032;-67
2021/12/13 05:44:01;;;;;;;9.15;5.75;;;;;;;-147.58;100.00;61311.59;5106786;28;20080;-67
2021/12/13 05:46:53;;;;;;;10.15;6.07;;;;;;;-147.58;100.00;61311.59;5107083;28;20145;-67
2021/12/13 05:49:32;;;;;;;8.57;5.40;;;;;;;-147.58;100.00;61311.59;5104921;28;20108;-67
2021/12/13 05:52:12;;;;;;;10.23;6.65;;;;;;;-147.58;100.00;61311.59;5105966;28;20047;-67
2021/12/13 05:54:43;;;;;;;8.80;5.40;;;;;;;-147.58;100.00;61311.59;5102659;28;20016;-67
2021/12/13 05:57:22;;;;;;;8.45;6.18;;;;;;;-147.58;100.00;61311.59;5086303;28;20100;-67
2021/12/13 06:00:02;;;;;;;9.93;5.72;;;;;;;-147.58;100.00;61311.59;5086223;28;20222;-67
2021/12/13 06:03:05;;;;;;;9.60;5.85;;;;;;;-147.58;100.00;61311.59;5086641;28;20159;-68
2021/12/13 06:05:42;;;;;;;12.63;6.78;;;;;;;-147.58;100.00;61311.59;5086392;28;20237;-67
2021/12/13 06:08:12;;;;;;;8.23;6.22;;;;;;;-147.58;100.00;61311.59;5086505;28;20047;-67
2021/12/13 06:10:47;;;;;;;9.95;5.75;;;;;;;-147.58;100.00;61311.59;5088550;28;20025;-67
2021/12/13 06:13:34;;;;;;;7.95;5.63;;;;;;;-147.58;100.00;61311.59;5098503;28;20142;-66
2021/12/13 06:16:00;;;;;;;8.55;5.30;;;;;;;-147.58;100.00;61311.59;5106364;28;20043;-67
2021/12/13 06:18:35;;;;;;;10.30;6.68;;;;;;;-147.58;100.00;61311.59;5106338;28;20020;-67
2021/12/13 06:21:28;;;;;;;12.25;6.68;;;;;;;-147.58;100.00;61311.59;5106404;28;20040;-67
2021/12/13 06:23:54;;;;;;;10.02;5.97;;;;;;;-147.58;100.00;61311.59;5103287;28;20972;-68
2021/12/13 06:26:27;;;;;;;11.88;7.18;;;;;;;-147.58;100.00;61311.59;5086150;28;20037;-67
2021/12/13 06:28:57;;;;;;;12.23;6.65;;;;;;;-147.58;100.00;61311.59;5086037;28;20261;-67
2021/12/13 06:31:33;;;;;;;12.43;6.10;;;;;;;-147.58;100.00;61311.59;5085872;28;20113;-67
2021/12/13 06:34:02;;;;;;;10.35;6.88;;;;;;;-147.58;100.00;61311.59;5085745;28;20306;-67
2021/12/13 06:36:40;;;;;;;9.60;6.25;;;;;;;-147.58;100.00;61311.59;5085881;28;20034;-67
2021/12/13 06:39:17;;;;;;;11.73;6.40;;;;;;;-147.58;100.00;61311.59;5100284;28;20031;-67
2021/12/13 06:41:58;;;;;;;13.15;7.15;;;;;;;-147.58;100.00;61311.59;5106180;28;20044;-67
2021/12/13 06:44:36;;;;;;;11.50;6.68;;;;;;;-147.58;100.00;61311.59;5106467;28;20136;-67
2021/12/13 06:47:07;;;;;;;10.35;7.00;;;;;;;-147.58;100.00;61311.59;5106014;28;20193;-66
2021/12/13 06:49:46;;;;;;;13.90;8.32;;;;;;;-147.58;100.00;61311.59;5106163;28;20105;-66
2021/12/13 06:52:11;;;;;;;13.65;7.90;;;;;;;-147.58;100.00;61311.59;5106373;28;20023;-67
2021/12/13 06:54:45;;;;;;;10.60;6.35;;;;;;;-147.58;100.00;61311.59;5091195;28;20158;-67
2021/12/13 06:57:22;;;;;;;11.32;7.30;;;;;;;-147.58;100.00;61311.59;5085787;28;20037;-66
2021/12/13 06:59:57;;;;;;;12.32;6.63;;;;;;;-147.58;100.00;61311.59;5085822;28;20028;-67
2021/12/13 07:02:46;;;;;;;12.60;6.72;;;;;;;-147.58;100.00;61311.59;5097811;28;20046;-67
2021/12/13 07:05:19;;;;;;;10.82;6.57;;;;;;;-147.58;100.00;61311.59;5109580;28;20311;-67
2021/12/13 07:08:21;;;;;;;11.38;7.75;;;;;;;-147.58;100.00;61311.59;5103069;28;20028;-66
2021/12/13 07:10:53;;;;;;;9.38;6.18;;;;;;;-147.58;100.00;61311.59;5081083;28;20036;-66
2021/12/13 07:13:38;;;;;;;10.05;6.18;;;;;;;-147.58;100.00;61311.59;5089137;28;20245;-66
2021/12/13 07:16:15;;;;;;;12.38;6.85;;;;;;;-147.58;100.00;61311.59;5089425;28;20029;-66
2021/12/13 07:18:47;;;;;;;14.68;7.60;;;;;;;-147.58;100.00;61311.59;5089138;28;20029;-67
2021/12/13 07:21:27;;;;;;;13.02;7.35;;;;;;;-147.58;100.00;61311.59;5089118;28;20116;-66
2021/12/13 07:24:09;;;;;;;11.50;6.55;;;;;;;-147.58;100.00;61311.59;5102248;28;20095;-67
2021/12/13 07:26:42;;;;;;;12.77;6.65;;;;;;;-147.58;100.00;61311.59;5109498;28;20056;-67
2021/12/13 07:29:23;;;;;;;12.23;6.55;;;;;;;-147.58;100.00;61311.59;5109264;28;20028;-66
2021/12/13 07:32:07;;;;;;;11.93;8.20;;;;;;;-147.58;100.00;61311.59;5109122;28;20056;-67
2021/12/13 07:34:47;;;;;;;11.32;7.00;;;;;;;-147.58;100.00;61311.59;5108934;28;20188;-67
2021/12/13 07:37:13;;;;;;;11.40;7.45;;;;;;;-147.58;100.00;61311.59;5107595;28;20028;-67
2021/12/13 07:39:39;;;;;;;14.32;7.93;;;;;;;-147.58;100.00;61311.59;5109369;28;20088;-67
2021/12/13 07:42:09;;;;;;;11.80;7.47;;;;;;;-147.58;100.00;61311.59;5109156;28;20048;-67
2021/12/13 07:44:45;;;;;;;13.43;7.57;;;;;;;-147.58;100.00;61311.59;5109105;28;20062;-67
2021/12/13 07:47:16;;;;;;;14.68;8.23;;;;;;;-147.58;100.00;61311.59;5108838;28;20043;-66
2021/12/13 07:49:51;;;;;;;13.02;8.73;;;;;;;-147.58;100.00;61311.59;5108934;28;20052;-67
2021/12/13 07:52:28;;;;;;;13.00;7.72;;;;;;;-147.58;100.00;61311.59;5107868;28;20163;-67
2021/12/13 07:54:55;;;;;;;14.13;8.73;;;;;;;-147.58;100.00;61311.59;5108861;28;20046;-66
2021/12/13 07:57:29;;;;;;;13.15;7.57;;;;;;;-147.58;100.00;61311.59;5108835;28;20024;-67
2021/12/13 07:59:55;;;;;;;12.88;7.80;;;;;;;-147.58;100.00;61311.59;5109028;28;20142;-67
2021/12/13 08:02:31;;;;;;;13.27;8.15;;;;;;;-147.58;100.00;61311.59;5108886;28;20156;-67
2021/12/13 08:05:01;;;;;;;15.18;8.27;;;;;;;-147.58;100.00;61311.59;5108698;28;20027;-67
2021/12/13 08:07:42;;;;;;;13.00;7.95;;;;;;;-147.58;100.00;61311.59;5094315;28;20069;-67
2021/12/13 08:10:31;;;;;;;14.10;7.55;;;;;;;-147.58;100.00;61311.59;5088250;28;20024;-67
2021/12/13 08:13:07;;;;;;;13.20;8.45;;;;;;;-147.58;100.00;61311.59;5088386;28;20028;-67
2021/12/13 08:15:41;;;;;;;16.27;8.82;;;;;;;-147.58;100.00;61311.59;5087492;28;20040;-66
2021/12/13 08:18:09;;;;;;;15.18;9.45;;;;;;;-147.58;100.00;61311.59;5087971;28;20105;-66
2021/12/13 08:20:47;;;;;;;16.23;9.55;;;;;;;-147.58;100.00;61311.59;5088131;28;20043;-68
2021/12/13 08:23:23;;;;;;;14.30;7.97;;;;;;;-147.58;100.00;61311.59;5094213;28;20036;-68
2021/12/13 08:25:53;;;;;;;14.38;7.43;;;;;;;-147.58;100.00;61311.59;5108215;28;20028;-66
2021/12/13 08:28:32;;;;;;;14.65;8.63;;;;;;;-147.58;100.00;61311.59;5108184;28;20274;-67
2021/12/13 08:31:00;;;;;;;17.50;9.25;;;;;;;-147.58;100.00;61311.59;5108033;28;20023;-67
2021/12/13 08:33:37;;;;;;;13.68;8.60;;;;;;;-147.58;100.00;61311.59;5105571;28;20180;-67
2021/12/13 08:36:30;;;;;;;15.50;8.38;;;;;;;-147.58;100.00;61311.59;5091163;28;20146;-66
2021/12/13 08:39:08;;;;;;;12.25;7.72;;;;;;;-147.58;100.00;61311.59;5083345;28;20059;-66
2021/12/13 08:41:54;;;;;;;16.50;8.88;;;;;;;-147.58;100.00;61311.59;5087592;28;20056;-66
2021/12/13 08:44:31;;;;;;;16.75;8.13;;;;;;;-147.58;100.00;61311.59;5086991;28;20090;-67
2021/12/13 08:47:07;;;;;;;13.27;7.90;;;;;;;-147.58;100.00;61311.59;5087172;28;20036;-67
2021/12/13 08:49:35;;;;;;;13.00;8.75;;;;;;;-147.58;100.00;61311.59;5087623;28;20091;-67
2021/12/13 08:52:14;;;;;;;14.95;8.70;;;;;;;-147.58;100.00;61311.59;5099907;28;20024;-67
2021/12/13 08:54:51;;;;;;;16.10;8.30;;;;;;;-147.58;100.00;61311.59;5107445;28;20043;-67
2021/12/13 08:57:44;;;;;;;13.60;8.43;;;;;;;-147.58;100.00;61311.59;5105890;28;20096;-65
2021/12/13 09:00:13;;;;;;;13.30;8.38;;;;;;;-147.58;100.00;61311.59;5107641;28;20136;-66
2021/12/13 09:02:46;;;;;;;14.77;8.25;;;;;;;-147.58;100.00;61311.59;5107603;28;20214;-66
2021/12/13 09:05:18;;;;;;;14.55;8.25;;;;;;;-147.58;100.00;61311.59;5107331;28;20043;-66
2021/12/13 09:07:53;;;;;;;19.48;9.45;;;;;;;-147.58;100.00;61311.59;5107399;28;20039;-67
2021/12/13 09:10:20;;;;;;;16.40;8.15;;;;;;;-147.58;100.00;61311.59;5105214;28;20024;-66
2021/12/13 09:12:47;;;;;;;24.90;10.35;;;;;;;-147.58;100.00;61311.59;5104069;28;20129;-66
2021/12/13 09:15:30;;;;;;;19.85;11.80;;;;;;;-147.58;100.00;61311.59;5101957;28;20024;-67
2021/12/13 09:17:56;;;;;;;19.80;11.48;;;;;;;-147.58;100.00;61311.59;5107243;28;20059;-67
2021/12/13 09:20:28;;;;;;;19.60;11.65;;;;;;;-147.58;100.00;61311.59;5105400;28;20245;-65
2021/12/13 09:22:57;;;;;;;19.38;13.25;;;;;;;-147.58;100.00;61311.59;5105748;28;20051;-66
2021/12/13 09:26:02;;;;;;;22.55;13.45;;;;;;;-147.58;100.00;61311.59;5106740;28;20248;-65
2021/12/13 09:28:35;;;;;;;25.05;12.95;;;;;;;-147.58;100.00;61311.59;5098660;28;20055;-57
2021/12/13 09:31:01;;;;;;;23.73;14.63;;;;;;;-147.58;100.00;61311.59;5105042;28;20084;-64
2021/12/13 09:33:34;;;;;;;18.17;13.05;;;;;;;-147.58;100.00;61311.59;5092837;28;20155;-69
2021/12/13 09:36:03;;;;;;;21.70;12.35;;;;;;;-147.58;100.00;61311.59;5106961;28;20044;-72
2021/12/13 09:38:58;;;;;;;23.83;14.63;;;;;;;-147.58;100.00;61311.59;5105433;28;20091;-64
2021/12/13 09:41:27;;;;;;;26.35;15.57;;;;;;;-147.58;100.00;61311.59;5086623;28;20096;-69
2021/12/13 09:43:55;;;;;;;23.20;13.57;;;;;;;-147.58;100.00;61311.59;5112922;28;20031;-66
2021/12/13 09:46:45;;;;;;;18.63;12.00;;;;;;;-147.58;100.00;61311.59;5112345;28;20192;-64
2021/12/13 09:49:29;;;;;;;23.75;14.43;;;;;;;-147.58;100.00;61311.59;5106851;28;20027;-66
2021/12/13 09:52:00;;;;;;;20.30;12.77;;;;;;;-147.58;100.00;61311.59;5105343;28;20020;-73
2021/12/13 09:54:32;;;;;;;19.08;10.80;;;;;;;-147.58;100.00;61311.59;5104992;28;20039;-71
2021/12/13 09:57:02;;;;;;;19.35;11.05;;;;;;;-147.58;100.00;61311.59;5104353;28;20116;-70
2021/12/13 09:59:36;;;;;;;19.52;10.77;;;;;;;-147.58;100.00;61311.59;5106662;28;20275;-71
2021/12/13 10:02:06;;;;;;;17.02;10.32;;;;;;;-147.58;100.00;61311.59;5106635;28;20032;-69
2021/12/13 10:04:38;;;;;;;15.02;10.07;;;;;;;-147.58;100.00;61311.59;5114578;28;20031;-70
2021/12/13 10:07:32;;;;;;;15.70;10.13;;;;;;;-147.58;100.00;61311.59;5105992;28;20141;-71
2021/12/13 10:10:14;;;;;;;19.73;11.23;;;;;;;-147.58;100.00;61311.59;5097587;28;20162;-69
2021/12/13 10:12:56;;;;;;;14.50;9.88;;;;;;;-147.58;100.00;61311.59;5103414;28;20032;-72
2021/12/13 10:15:26;;;;;;;15.13;9.63;;;;;;;-147.58;100.00;61311.59;5104792;28;20039;-68
2021/12/13 10:17:57;;;;;;;13.00;9.43;;;;;;;-147.58;100.00;61311.59;5104647;28;20046;-68
2021/12/13 10:20:40;;;;;;;16.20;10.07;;;;;;;-147.58;100.00;61311.59;5105951;28;20047;-70
2021/12/13 10:23:12;;;;;;;14.70;9.10;;;;;;;-147.58;100.00;61311.59;5104706;28;20035;-68
2021/12/13 10:25:43;;;;;;;19.70;9.93;;;;;;;-147.58;100.00;61311.59;5105689;28;20236;-69
2021/12/13 10:28:14;;;;;;;16.63;10.30;;;;;;;-147.58;100.00;61311.59;5104378;28;20055;-68
2021/12/13 10:30:47;;;;;;;17.08;9.35;;;;;;;-147.58;100.00;61311.59;5109105;28;20085;-69
2021/12/13 10:33:14;;;;;;;18.52;10.52;;;;;;;-147.58;100.00;61311.59;5104913;28;20118;-71
2021/12/13 10:35:42;;;;;;;13.30;8.77;;;;;;;-147.58;100.00;61311.59;5100547;28;20024;-69
2021/12/13 10:38:16;;;;;;;15.07;9.00;;;;;;;-147.58;100.00;61311.59;5105151;28;20028;-69
2021/12/13 10:40:53;;;;;;;14.90;9.82;;;;;;;-147.58;100.00;61311.59;5107682;28;20059;-71
2021/12/13 10:43:26;;;;;;;15.07;9.57;;;;;;;-147.58;100.00;61311.59;5107843;28;20117;-71
2021/12/13 10:45:59;;;;;;;16.88;9.75;;;;;;;-147.58;100.00;61311.59;5109381;28;20032;-71
2021/12/13 10:48:30;;;;;;;15.70;9.70;;;;;;;-147.58;100.00;61311.59;5099565;28;20028;-70
2021/12/13 10:51:06;;;;;;;15.00;9.23;;;;;;;-147.58;100.00;61311.59;5105080;28;20102;-70
2021/12/13 10:53:33;;;;;;;15.63;8.80;;;;;;;-147.58;100.00;61311.59;5108997;28;20089;-72
2021/12/13 10:56:13;;;;;;;14.00;8.75;;;;;;;-147.58;100.00;61311.59;5108972;28;20193;-69
2021/12/13 10:58:45;;;;;;;12.73;7.93;;;;;;;-147.58;100.00;61311.59;5104963;28;20024;-69
2021/12/13 11:01:29;;;;;;;14.23;8.63;;;;;;;-147.58;100.00;61311.59;5110308;28;20233;-70
2021/12/13 11:03:58;;;;;;;14.23;8.55;;;;;;;-147.58;100.00;61311.59;5109987;28;20044;-72
2021/12/13 11:06:25;;;;;;;13.63;9.35;;;;;;;-147.58;100.00;61311.59;5109793;28;20095;-68
2021/12/13 11:08:51;;;;;;;14.55;8.90;;;;;;;-147.58;100.00;61311.59;5108637;28;20097;-68
2021/12/13 11:11:37;;;;;;;15.90;7.85;;;;;;;-147.58;100.00;61311.59;5108471;28;20089;-73
2021/12/13 11:14:07;;;;;;;16.67;8.18;;;;;;;-147.58;100.00;61311.59;5109500;28;20264;-69
2021/12/13 11:16:41;;;;;;;14.98;8.95;;;;;;;-147.58;100.00;61311.59;5109806;28;20331;-69
2021/12/13 11:19:12;;;;;;;15.10;8.32;;;;;;;-147.58;100.00;61311.59;5108032;28;20077;-70
2021/12/13 11:21:42;;;;;;;12.52;8.45;;;;;;;-147.58;100.00;61311.59;5107883;28;20076;-71
2021/12/13 11:24:14;;;;;;;10.40;7.63;;;;;;;-147.58;100.00;61311.59;5108342;28;20284;-69
2021/12/13 11:26:42;;;;;;;16.42;8.65;;;;;;;-147.58;100.00;61311.59;5095579;28;20028;-64
2021/12/13 11:29:10;;;;;;;11.32;7.75;;;;;;;-147.58;100.00;61311.59;5107794;28;20250;-66
2021/12/13 11:31:55;;;;;;;19.15;8.30;;;;;;;-147.58;100.00;61311.59;5106104;28;20076;-71
2021/12/13 11:35:11;;;;;;;19.45;8.20;;;;;;;-147.58;100.00;61311.59;5099144;28;20153;-65
2021/12/13 11:38:13;;;;;;;12.85;7.47;;;;;;;-147.58;100.00;61311.59;5088819;28;20119;-66
2021/12/13 11:41:16;;;;;;;12.60;7.45;;;;;;;-147.58;100.00;61311.59;5109278;28;20054;-65
2021/12/13 11:44:12;;;;;;;12.38;7.78;;;;;;;-147.58;100.00;61311.59;5109039;28;20156;-65
2021/12/13 11:47:11;;;;;;;11.55;7.60;;;;;;;-147.58;100.00;61311.59;5107671;28;20268;-67
2021/12/13 11:50:02;;;;;;;13.30;7.40;;;;;;;-147.58;100.00;61311.59;5099846;28;20024;-67
2021/12/13 11:52:52;;;;;;;13.23;7.68;;;;;;;-147.58;100.00;61311.59;5108613;28;20111;-65